createdAt,value
2023-01-10T00:00:32.318Z,50.53
2023-01-10T00:03:00.309Z,50.59
2023-01-10T00:05:28.301Z,50.76
2023-01-10T00:07:59.163Z,50.83
2023-01-10T00:10:27.095Z,50.89
2023-01-10T00:13:12.283Z,50.93
2023-01-10T00:15:40.243Z,51.06
2023-01-10T00:18:08.166Z,51.15
2023-01-10T00:20:36.109Z,51.25
2023-01-10T00:23:07.156Z,51.30
2023-01-10T00:25:36.270Z,51.19
2023-01-10T00:28:10.929Z,51.42
2023-01-10T00:30:39.813Z,51.58
2023-01-10T00:33:07.819Z,51.68
2023-01-10T00:35:35.760Z,51.43
2023-01-10T00:38:06.804Z,51.60
2023-01-10T00:40:34.728Z,51.51
2023-01-10T00:43:19.953Z,51.59
2023-01-10T00:45:47.865Z,51.56
2023-01-10T00:48:15.833Z,51.67
2023-01-10T00:50:44.016Z,51.81
2023-01-10T00:53:13.311Z,51.83
2023-01-10T00:55:41.714Z,51.96
2023-01-10T00:58:11.698Z,51.81
2023-01-10T01:00:39.706Z,51.89
2023-01-10T01:03:09.018Z,52.03
2023-01-10T01:05:41.588Z,52.07
2023-01-10T01:08:09.452Z,52.15
2023-01-10T01:10:38.746Z,52.19
2023-01-10T01:13:08.237Z,52.20
2023-01-10T01:15:36.211Z,52.13
2023-01-10T01:18:04.266Z,52.18
2023-01-10T01:20:32.150Z,52.24
2023-01-10T01:23:00.821Z,52.47
2023-01-10T01:25:28.730Z,52.63
2023-01-10T01:27:58.086Z,52.62
2023-01-10T01:30:26.033Z,52.74
2023-01-10T01:32:53.923Z,52.39
2023-01-10T01:35:22.119Z,52.53
2023-01-10T01:37:50.010Z,52.59
2023-01-10T01:40:18.437Z,52.61
2023-01-10T01:42:46.825Z,52.62
2023-01-10T01:45:35.433Z,52.57
2023-01-10T01:48:08.706Z,52.55
2023-01-10T01:50:38.295Z,52.74
2023-01-10T01:53:08.809Z,52.54
2023-01-10T01:55:36.731Z,52.75
2023-01-10T01:58:06.607Z,52.67
2023-01-10T02:00:35.914Z,52.70
2023-01-10T02:03:03.861Z,52.61
2023-01-10T02:05:31.882Z,52.71
2023-01-10T02:07:59.880Z,52.54
2023-01-10T02:10:30.962Z,52.71
2023-01-10T02:13:01.225Z,52.77
2023-01-10T02:15:29.120Z,52.78
2023-01-10T02:17:58.438Z,52.79
2023-01-10T02:20:26.767Z,52.72
2023-01-10T02:23:29.404Z,52.68
2023-01-10T02:26:31.944Z,52.98
2023-01-10T02:29:16.349Z,52.83
2023-01-10T02:32:23.453Z,52.84
2023-01-10T02:35:01.960Z,52.72
2023-01-10T02:37:36.442Z,52.78
2023-01-10T02:40:06.028Z,53.05
2023-01-10T02:42:38.003Z,52.97
2023-01-10T02:45:08.078Z,53.20
2023-01-10T02:47:38.508Z,53.11
2023-01-10T02:50:26.715Z,53.14
2023-01-10T02:52:54.623Z,53.23
2023-01-10T02:55:22.734Z,53.15
2023-01-10T02:57:51.342Z,53.23
2023-01-10T03:00:32.102Z,53.27
2023-01-10T03:03:14.422Z,53.54
2023-01-10T03:05:53.371Z,53.52
2023-01-10T03:08:27.336Z,53.47
2023-01-10T03:10:57.856Z,53.65
2023-01-10T03:13:27.868Z,53.82
2023-01-10T03:15:55.852Z,53.83
2023-01-10T03:18:26.469Z,54.17
2023-01-10T03:20:54.374Z,54.06
2023-01-10T03:23:22.312Z,54.38
2023-01-10T03:25:50.666Z,54.34
2023-01-10T03:28:20.519Z,54.52
2023-01-10T03:30:50.709Z,54.91
2023-01-10T03:33:19.853Z,54.82
2023-01-10T03:35:54.439Z,54.96
2023-01-10T03:38:25.293Z,55.34
2023-01-10T03:40:56.595Z,55.30
2023-01-10T03:43:45.159Z,55.54
2023-01-10T03:46:14.333Z,55.83
2023-01-10T03:48:43.705Z,56.00
2023-01-10T03:51:12.995Z,55.97
2023-01-10T03:53:40.934Z,56.08
2023-01-10T03:56:09.102Z,56.24
2023-01-10T03:58:37.002Z,56.35
2023-01-10T04:01:05.034Z,56.61
2023-01-10T04:03:32.954Z,56.58
2023-01-10T04:06:00.892Z,56.71
2023-01-10T04:08:30.171Z,56.64
2023-01-10T04:10:58.092Z,56.74
2023-01-10T04:13:26.025Z,56.79
2023-01-10T04:15:53.990Z,56.86
2023-01-10T04:18:21.934Z,56.99
2023-01-10T04:20:52.127Z,57.21
2023-01-10T04:23:20.208Z,57.22
2023-01-10T04:25:49.686Z,57.44
2023-01-10T04:28:17.560Z,57.61
2023-01-10T04:30:45.510Z,57.69
2023-01-10T04:33:13.731Z,57.64
2023-01-10T04:35:41.714Z,57.83
2023-01-10T04:38:09.622Z,57.85
2023-01-10T04:40:37.516Z,57.95
2023-01-10T04:43:06.827Z,58.05
2023-01-10T04:45:34.753Z,57.95
2023-01-10T04:48:02.632Z,58.01
2023-01-10T04:50:30.546Z,58.01
2023-01-10T04:52:58.428Z,58.23
2023-01-10T04:55:26.427Z,58.38
2023-01-10T04:57:54.290Z,58.47
2023-01-10T05:00:23.998Z,58.54
2023-01-10T05:02:56.657Z,58.60
2023-01-10T05:05:24.664Z,58.74
2023-01-10T05:07:52.606Z,58.82
2023-01-10T05:10:20.687Z,58.82
2023-01-10T05:12:48.598Z,59.02
2023-01-10T05:15:16.580Z,58.92
2023-01-10T05:17:45.859Z,58.99
2023-01-10T05:20:14.450Z,59.16
2023-01-10T05:22:42.393Z,59.15
2023-01-10T05:25:11.030Z,59.35
2023-01-10T05:27:42.149Z,59.30
2023-01-10T05:30:12.267Z,59.40
2023-01-10T05:32:40.213Z,59.42
2023-01-10T05:35:10.304Z,59.41
2023-01-10T05:37:38.299Z,59.57
2023-01-10T05:40:07.394Z,59.65
2023-01-10T05:42:35.307Z,59.63
2023-01-10T05:45:03.458Z,59.84
2023-01-10T05:47:31.393Z,59.94
2023-01-10T05:49:59.275Z,60.10
2023-01-10T05:52:28.508Z,60.16
2023-01-10T05:54:56.451Z,60.12
2023-01-10T05:57:24.742Z,60.17
2023-01-10T05:59:52.662Z,60.03
2023-01-10T06:02:20.648Z,60.18
2023-01-10T06:04:48.614Z,60.14
2023-01-10T06:07:16.532Z,60.13
2023-01-10T06:09:46.759Z,60.22
2023-01-10T06:12:14.731Z,60.24
2023-01-10T06:14:42.625Z,60.26
2023-01-10T06:17:10.899Z,60.45
2023-01-10T06:19:38.792Z,60.15
2023-01-10T06:22:06.685Z,60.37
2023-01-10T06:24:34.605Z,60.57
2023-01-10T06:27:03.873Z,60.53
2023-01-10T06:29:31.863Z,60.48
2023-01-10T06:32:00.350Z,60.64
2023-01-10T06:34:28.245Z,60.51
2023-01-10T06:36:56.247Z,60.36
2023-01-10T06:39:24.258Z,60.41
2023-01-10T06:41:52.132Z,60.43
2023-01-10T06:44:21.440Z,60.43
2023-01-10T06:46:49.342Z,60.47
2023-01-10T06:49:17.278Z,60.27
2023-01-10T06:51:45.212Z,60.10
2023-01-10T06:54:13.094Z,60.32
2023-01-10T06:56:41.103Z,60.32
2023-01-10T06:59:09.951Z,60.36
2023-01-10T07:01:39.358Z,60.55
2023-01-10T07:04:07.363Z,60.32
2023-01-10T07:06:38.359Z,60.31
2023-01-10T07:09:06.611Z,60.28
2023-01-10T07:11:34.581Z,60.16
2023-01-10T07:14:02.676Z,60.52
2023-01-10T07:16:30.666Z,60.34
2023-01-10T07:19:00.988Z,60.33
2023-01-10T07:21:29.042Z,60.30
2023-01-10T07:23:57.085Z,60.42
2023-01-10T07:26:25.022Z,60.28
2023-01-10T07:28:52.950Z,60.44
2023-01-10T07:31:22.843Z,60.41
2023-01-10T07:33:51.887Z,60.40
2023-01-10T07:36:21.203Z,60.49
2023-01-10T07:38:49.136Z,60.50
2023-01-10T07:41:17.077Z,60.17
2023-01-10T07:43:44.985Z,60.33
2023-01-10T07:46:16.884Z,60.37
2023-01-10T07:48:46.279Z,60.42
2023-01-10T07:51:14.222Z,60.54
2023-01-10T07:53:43.487Z,61.31
2023-01-10T07:56:11.417Z,61.53
2023-01-10T07:58:39.318Z,61.80
2023-01-10T08:01:07.877Z,61.52
2023-01-10T08:03:36.800Z,61.78
2023-01-10T08:06:05.844Z,62.11
2023-01-10T08:08:34.526Z,62.31
2023-01-10T08:11:04.023Z,63.00
2023-01-10T08:13:32.071Z,63.44
2023-01-10T08:16:00.062Z,64.00
2023-01-10T08:18:28.033Z,64.17
2023-01-10T08:20:55.987Z,64.03
2023-01-10T08:23:23.920Z,64.63
2023-01-10T08:25:52.359Z,64.17
2023-01-10T08:28:21.695Z,64.35
2023-01-10T08:30:50.574Z,64.27
2023-01-10T08:33:19.002Z,64.58
2023-01-10T08:35:46.952Z,64.26
2023-01-10T08:38:15.120Z,64.52
2023-01-10T08:40:44.064Z,64.67
2023-01-10T08:43:12.699Z,64.47
2023-01-10T08:45:42.077Z,64.40
2023-01-10T08:48:10.770Z,64.01
2023-01-10T08:50:38.900Z,64.26
2023-01-10T08:53:07.245Z,64.30
2023-01-10T08:55:36.342Z,64.00
2023-01-10T08:58:04.303Z,63.80
2023-01-10T09:00:32.276Z,63.96
2023-01-10T09:03:01.716Z,64.07
2023-01-10T09:05:29.704Z,64.12
2023-01-10T09:07:59.355Z,63.75
2023-01-10T09:10:27.341Z,63.67
2023-01-10T09:12:59.774Z,63.61
2023-01-10T09:15:28.933Z,63.64
2023-01-10T09:17:57.075Z,63.54
2023-01-10T09:20:29.277Z,63.60
2023-01-10T09:22:57.507Z,63.39
2023-01-10T09:25:25.779Z,63.57
2023-01-10T09:27:58.056Z,63.71
2023-01-10T09:30:26.230Z,63.36
2023-01-10T09:32:54.201Z,63.41
2023-01-10T09:35:22.254Z,63.08
2023-01-10T09:37:51.533Z,62.98
2023-01-10T09:40:22.908Z,63.07
2023-01-10T09:42:57.223Z,63.26
2023-01-10T09:45:30.005Z,63.28
2023-01-10T09:48:00.237Z,63.11
2023-01-10T09:55:46.973Z,62.55
2023-01-10T09:58:16.659Z,62.67
2023-01-10T10:00:46.136Z,62.52
2023-01-10T10:03:22.899Z,62.71
2023-01-10T10:05:54.053Z,62.89
2023-01-10T10:08:26.969Z,62.78
2023-01-10T10:11:04.984Z,62.73
2023-01-10T10:13:37.887Z,62.83
2023-01-10T10:16:10.921Z,62.81
2023-01-10T10:18:43.254Z,62.83
2023-01-10T10:21:17.431Z,62.52
2023-01-10T10:24:03.078Z,62.56
2023-01-10T10:26:34.633Z,62.57
2023-01-10T10:29:26.503Z,62.51
2023-01-10T10:32:26.008Z,62.56
2023-01-10T10:34:54.892Z,62.15
2023-01-10T10:37:25.114Z,62.66
2023-01-10T10:39:54.924Z,62.30
2023-01-10T10:42:24.210Z,62.43
2023-01-10T10:44:54.008Z,62.70
2023-01-10T10:47:23.033Z,62.77
2023-01-10T10:49:52.314Z,62.97
2023-01-10T10:52:24.821Z,62.81
2023-01-10T10:54:53.015Z,62.81
2023-01-10T10:57:21.575Z,62.90
2023-01-10T10:59:54.951Z,63.07
2023-01-10T11:02:25.383Z,62.73
2023-01-10T11:04:54.965Z,62.42
2023-01-10T11:07:23.384Z,62.10
2023-01-10T11:09:53.715Z,62.21
2023-01-10T11:12:22.709Z,61.95
2023-01-10T11:14:52.949Z,61.90
2023-01-10T11:17:25.906Z,61.57
2023-01-10T11:19:58.429Z,61.75
2023-01-10T11:22:26.774Z,61.33
2023-01-10T11:24:56.469Z,61.51
2023-01-10T11:27:26.159Z,61.13
2023-01-10T11:29:57.566Z,61.34
2023-01-10T11:32:30.579Z,60.77
2023-01-10T11:34:59.785Z,60.63
2023-01-10T11:37:29.389Z,60.74
2023-01-10T11:40:16.567Z,60.60
2023-01-10T11:42:44.760Z,60.64
2023-01-10T11:45:23.687Z,60.41
2023-01-10T11:47:54.545Z,60.27
2023-01-10T11:50:23.784Z,60.47
2023-01-10T11:52:51.778Z,60.28
2023-01-10T11:55:21.115Z,60.13
2023-01-10T11:57:56.383Z,60.10
2023-01-10T12:00:32.031Z,59.58
2023-01-10T12:02:59.906Z,60.04
2023-01-10T12:05:28.198Z,59.54
2023-01-10T12:07:56.721Z,59.61
2023-01-10T12:10:25.967Z,59.56
2023-01-10T12:12:57.901Z,59.05
2023-01-10T12:15:28.858Z,58.69
2023-01-10T12:17:57.143Z,58.64
2023-01-10T12:20:25.074Z,58.02
2023-01-10T12:22:54.483Z,57.56
2023-01-10T12:25:24.093Z,57.63
2023-01-10T12:27:52.469Z,57.11
2023-01-10T12:30:23.189Z,56.74
2023-01-10T12:33:02.834Z,56.78
2023-01-10T12:35:39.543Z,56.59
2023-01-10T12:38:16.784Z,56.56
2023-01-10T12:40:46.559Z,56.59
2023-01-10T12:43:33.930Z,56.24
2023-01-10T12:46:21.885Z,56.55
2023-01-10T12:48:57.706Z,56.21
2023-01-10T12:51:26.977Z,56.19
2023-01-10T12:53:56.437Z,56.28
2023-01-10T12:56:24.430Z,56.33
2023-01-10T12:58:56.196Z,56.63
2023-01-10T13:01:25.699Z,56.71
2023-01-10T13:03:56.773Z,56.62
2023-01-10T13:06:27.954Z,57.06
2023-01-10T13:08:58.086Z,56.90
2023-01-10T13:11:26.336Z,57.37
2023-01-10T13:13:56.140Z,57.31
2023-01-10T13:16:28.370Z,57.10
2023-01-10T13:19:06.623Z,57.54
2023-01-10T13:21:34.997Z,57.40
2023-01-10T13:24:03.623Z,57.98
2023-01-10T13:26:53.550Z,57.65
2023-01-10T13:29:22.908Z,57.99
2023-01-10T13:31:57.207Z,57.92
2023-01-10T13:34:27.698Z,57.86
2023-01-10T13:37:02.691Z,58.12
2023-01-10T13:39:32.551Z,58.02
2023-01-10T13:42:46.098Z,57.96
2023-01-10T13:45:21.638Z,58.08
2023-01-10T13:48:25.846Z,58.04
2023-01-10T13:51:13.996Z,58.10
2023-01-10T13:54:00.900Z,58.18
2023-01-10T13:56:46.648Z,58.37
2023-01-10T13:59:33.084Z,58.39
2023-01-10T14:02:19.533Z,58.25
2023-01-10T14:04:49.043Z,58.50
2023-01-10T14:07:22.720Z,58.50
2023-01-10T14:09:51.110Z,58.46
2023-01-10T14:12:25.296Z,58.23
2023-01-10T14:14:58.596Z,58.35
2023-01-10T14:17:27.293Z,58.92
2023-01-10T14:20:15.783Z,58.96
2023-01-10T14:22:48.324Z,58.98
2023-01-10T14:25:20.324Z,59.20
2023-01-10T14:27:48.972Z,59.04
2023-01-10T14:30:18.598Z,59.02
2023-01-10T14:32:49.154Z,58.91
2023-01-10T14:35:18.981Z,58.98
2023-01-10T14:37:53.140Z,58.95
2023-01-10T14:40:27.048Z,58.61
2023-01-10T14:42:58.441Z,59.10
2023-01-10T14:45:31.833Z,58.72
2023-01-10T14:48:00.025Z,58.73
2023-01-10T14:50:30.156Z,58.78
2023-01-10T14:52:59.445Z,59.10
2023-01-10T14:55:28.223Z,59.31
2023-01-10T14:57:57.099Z,59.22
2023-01-10T15:00:29.133Z,59.62
2023-01-10T15:02:57.754Z,59.60
2023-01-10T15:05:27.070Z,59.78
2023-01-10T15:07:55.481Z,59.89
2023-01-10T15:10:25.960Z,59.99
2023-01-10T15:12:55.111Z,59.60
2023-01-10T15:15:25.975Z,59.70
2023-01-10T15:17:54.059Z,60.07
2023-01-10T15:20:23.348Z,60.34
2023-01-10T15:22:55.572Z,60.08
2023-01-10T15:25:30.444Z,60.37
2023-01-10T15:27:58.711Z,60.63
2023-01-10T15:30:27.409Z,60.74
2023-01-10T15:32:55.986Z,60.61
2023-01-10T15:35:35.165Z,60.89
2023-01-10T15:38:05.413Z,60.96
2023-01-10T15:40:36.342Z,61.16
2023-01-10T15:43:25.589Z,61.11
2023-01-10T15:45:55.889Z,61.05
2023-01-10T15:48:28.200Z,61.45
2023-01-10T15:51:01.315Z,61.50
2023-01-10T15:53:51.759Z,61.42
2023-01-10T15:56:22.047Z,61.69
2023-01-10T15:58:50.107Z,61.67
2023-01-10T16:01:20.276Z,61.81
2023-01-10T16:03:50.245Z,62.01
2023-01-10T16:06:21.957Z,62.24
2023-01-10T16:08:50.501Z,62.12
2023-01-10T16:11:41.650Z,62.43
2023-01-10T16:14:08.895Z,62.41
2023-01-10T16:16:37.085Z,62.49
2023-01-10T16:19:05.046Z,62.17
2023-01-10T16:21:36.132Z,62.18
2023-01-10T16:24:04.473Z,62.44
2023-01-10T16:26:34.083Z,62.67
2023-01-10T16:29:02.053Z,62.67
2023-01-10T16:31:30.195Z,62.91
2023-01-10T16:33:58.132Z,63.36
2023-01-10T16:36:26.052Z,63.38
2023-01-10T16:38:54.039Z,63.28
2023-01-10T16:41:39.427Z,63.31
2023-01-10T16:44:08.672Z,63.71
2023-01-10T16:46:36.623Z,63.76
2023-01-10T16:49:06.599Z,63.57
2023-01-10T16:51:34.785Z,63.82
2023-01-10T16:54:02.986Z,63.54
2023-01-10T16:56:31.016Z,63.55
2023-01-10T16:58:59.032Z,63.75
2023-01-10T17:01:30.443Z,63.79
2023-01-10T17:03:58.547Z,64.13
2023-01-10T17:06:26.954Z,64.29
2023-01-10T17:08:54.869Z,63.96
2023-01-10T17:11:25.081Z,64.32
2023-01-10T17:13:52.988Z,64.30
2023-01-10T17:16:20.928Z,64.30
2023-01-10T17:18:50.303Z,64.82
2023-01-10T17:21:19.323Z,64.86
2023-01-10T17:23:47.390Z,64.82
2023-01-10T17:26:17.062Z,64.90
2023-01-10T17:28:45.929Z,64.71
2023-01-10T17:31:13.952Z,64.98
2023-01-10T17:33:41.821Z,64.84
2023-01-10T17:36:11.518Z,65.04
2023-01-10T17:38:39.662Z,64.74
2023-01-10T17:41:08.269Z,65.02
2023-01-10T17:43:36.152Z,65.28
2023-01-10T17:46:05.715Z,64.96
2023-01-10T17:48:34.692Z,65.34
2023-01-10T17:51:02.803Z,65.10
2023-01-10T17:53:32.216Z,65.21
2023-01-10T17:56:01.145Z,65.60
2023-01-10T17:58:29.305Z,65.51
2023-01-10T18:00:57.380Z,65.31
2023-01-10T18:03:25.360Z,65.55
2023-01-10T18:05:53.715Z,65.67
2023-01-10T18:08:21.700Z,65.20
2023-01-10T18:10:51.101Z,65.50
2023-01-10T18:13:20.488Z,65.54
2023-01-10T18:15:49.790Z,65.26
2023-01-10T18:18:21.323Z,65.51
2023-01-10T18:20:50.340Z,65.42
2023-01-10T18:23:25.352Z,65.87
2023-01-10T18:25:55.942Z,65.49
2023-01-10T18:28:39.511Z,65.53
2023-01-10T18:31:09.059Z,65.42
2023-01-10T18:33:36.943Z,65.57
2023-01-10T18:36:05.069Z,65.42
2023-01-10T18:38:33.084Z,65.40
2023-01-10T18:41:02.452Z,65.38
2023-01-10T18:43:31.279Z,65.28
2023-01-10T18:46:03.013Z,64.90
2023-01-10T18:48:31.048Z,64.70
2023-01-10T18:51:00.198Z,64.34
2023-01-10T18:53:28.221Z,64.09
2023-01-10T18:55:56.297Z,63.67
2023-01-10T18:58:25.941Z,63.77
2023-01-10T19:00:53.866Z,63.42
2023-01-10T19:03:21.777Z,63.46
2023-01-10T19:05:49.729Z,63.28
2023-01-10T19:08:17.655Z,62.90
2023-01-10T19:11:11.287Z,63.00
2023-01-10T19:13:35.114Z,62.90
2023-01-10T19:16:11.212Z,63.05
2023-01-10T19:18:39.141Z,62.79
2023-01-10T19:21:09.110Z,62.47
2023-01-10T19:23:37.053Z,62.74
2023-01-10T19:26:05.007Z,62.54
2023-01-10T19:28:34.353Z,62.32
2023-01-10T19:31:04.998Z,62.41
2023-01-10T19:33:34.393Z,62.64
2023-01-10T19:36:06.002Z,62.75
2023-01-10T19:38:33.978Z,62.43
2023-01-10T19:41:02.236Z,62.83
2023-01-10T19:43:30.192Z,62.32
2023-01-10T19:45:59.541Z,62.31
2023-01-10T19:48:27.699Z,62.21
2023-01-10T19:50:55.592Z,61.98
2023-01-10T19:53:27.150Z,62.02
2023-01-10T19:56:01.964Z,62.01
2023-01-10T19:58:30.299Z,61.75
2023-01-10T20:00:59.610Z,61.54
2023-01-10T20:03:27.561Z,61.20
2023-01-10T20:05:55.439Z,61.24
2023-01-10T20:08:23.664Z,61.49
2023-01-10T20:10:51.623Z,61.37
2023-01-10T20:13:19.497Z,61.04
2023-01-10T20:15:47.448Z,61.11
2023-01-10T20:18:19.349Z,60.86
2023-01-10T20:20:47.234Z,61.04
2023-01-10T20:23:15.362Z,61.06
2023-01-10T20:25:43.747Z,61.16
2023-01-10T20:28:11.644Z,60.55
2023-01-10T20:30:39.553Z,60.76
2023-01-10T20:33:07.601Z,60.23
2023-01-10T20:35:37.593Z,60.36
2023-01-10T20:38:07.230Z,60.73
2023-01-10T20:40:35.193Z,60.48
2023-01-10T20:43:03.091Z,60.39
2023-01-10T20:45:31.078Z,60.56
2023-01-10T20:47:58.935Z,60.66
2023-01-10T20:50:26.851Z,60.84
2023-01-10T20:52:56.154Z,60.90
2023-01-10T20:55:24.065Z,60.56
2023-01-10T20:57:52.066Z,60.63
2023-01-10T21:00:21.068Z,60.25
2023-01-10T21:02:49.123Z,60.40
2023-01-10T21:05:17.099Z,60.28
2023-01-10T21:07:45.034Z,60.66
2023-01-10T21:10:15.262Z,60.73
2023-01-10T21:12:43.317Z,60.47
2023-01-10T21:15:11.817Z,60.31
2023-01-10T21:17:41.916Z,60.23
2023-01-10T21:20:11.555Z,60.46
2023-01-10T21:22:39.412Z,60.40
2023-01-10T21:25:07.832Z,60.34
2023-01-10T21:27:37.257Z,60.67
2023-01-10T21:30:06.323Z,60.30
2023-01-10T21:32:34.205Z,60.60
2023-01-10T21:35:02.146Z,60.36
2023-01-10T21:37:30.027Z,60.44
2023-01-10T21:39:59.707Z,60.69
2023-01-10T21:42:38.262Z,60.55
2023-01-10T21:45:08.902Z,60.26
2023-01-10T21:47:38.464Z,60.19
2023-01-10T21:50:07.103Z,60.34
2023-01-10T21:52:35.044Z,60.24
2023-01-10T21:55:02.970Z,60.11
2023-01-10T21:57:30.876Z,60.47
2023-01-10T21:59:58.773Z,60.15
2023-01-10T22:02:29.957Z,60.47
2023-01-10T22:04:58.176Z,60.08
2023-01-10T22:07:26.849Z,60.11
2023-01-10T22:09:54.978Z,60.34
2023-01-10T22:12:23.899Z,60.36
2023-01-10T22:14:51.838Z,60.20
2023-01-10T22:17:19.814Z,60.37
2023-01-10T22:19:49.178Z,60.77
2023-01-10T22:22:17.547Z,60.89
2023-01-10T22:24:47.554Z,60.45
2023-01-10T22:27:15.511Z,60.08
2023-01-10T22:29:43.551Z,59.91
2023-01-10T22:32:11.454Z,59.48
2023-01-10T22:34:39.375Z,59.55
2023-01-10T22:37:08.638Z,59.39
2023-01-10T22:39:36.516Z,59.51
2023-01-10T22:42:04.474Z,59.41
2023-01-10T22:44:32.369Z,59.38
2023-01-10T22:47:00.232Z,59.70
2023-01-10T22:49:28.138Z,59.10
2023-01-10T22:51:55.983Z,59.04
2023-01-10T22:54:25.242Z,59.03
2023-01-10T22:56:53.084Z,58.66
2023-01-10T22:59:20.955Z,58.69
2023-01-10T23:01:48.890Z,58.77
2023-01-10T23:04:18.108Z,58.74
2023-01-10T23:06:46.162Z,58.77
2023-01-10T23:09:14.050Z,58.72
2023-01-10T23:11:43.436Z,58.44
2023-01-10T23:14:11.497Z,58.57
2023-01-10T23:16:39.421Z,58.80
2023-01-10T23:19:07.322Z,58.78
2023-01-10T23:21:35.237Z,58.95
2023-01-10T23:24:03.127Z,58.97
2023-01-10T23:26:31.029Z,58.63
2023-01-10T23:29:00.263Z,58.86
2023-01-10T23:31:29.977Z,59.25
2023-01-10T23:33:57.986Z,59.05
2023-01-10T23:36:26.047Z,59.32
2023-01-10T23:38:53.939Z,59.53
2023-01-10T23:41:22.057Z,59.59
2023-01-10T23:43:50.211Z,59.53
2023-01-10T23:46:19.682Z,59.65
2023-01-10T23:48:48.451Z,59.67
2023-01-10T23:51:16.428Z,59.41
2023-01-10T23:53:44.280Z,59.47
2023-01-10T23:56:13.232Z,59.48
2023-01-10T23:58:41.197Z,59.37
